Time;durP1;ratioP1;P1;durP2;ratioP2;P2;SDS_P1;SDS_P2;PMS_P1;PMS_P2;Temp;Humidity;BMP_temperature;BMP_pressure;BME280_temperature;BME280_humidity;BME280_pressure;Samples;Min_cycle;Max_cycle;Signal;HPM_P1;HPM_P2
2023/11/30 00:02:02;;;;;;;9.68;4.85;;;;;;;-2.58;100.00;100251.00;4869249;29;20502;-73
2023/11/30 00:04:28;;;;;;;9.45;5.70;;;;;;;-2.59;100.00;100247.56;4867008;29;20141;-72
2023/11/30 00:06:53;;;;;;;9.52;5.18;;;;;;;-2.57;100.00;100250.00;4884986;29;20135;-72
2023/11/30 00:09:19;;;;;;;7.30;4.70;;;;;;;-2.58;100.00;100251.78;4870460;29;20052;-72
2023/11/30 00:11:44;;;;;;;9.07;5.03;;;;;;;-2.57;100.00;100255.25;4887828;29;20093;-72
2023/11/30 00:14:10;;;;;;;8.52;5.13;;;;;;;-2.56;100.00;100260.28;4887792;29;20037;-72
2023/11/30 00:16:36;;;;;;;9.20;4.97;;;;;;;-2.57;100.00;100258.69;4856797;29;20044;-73
2023/11/30 00:19:02;;;;;;;8.80;5.03;;;;;;;-2.56;100.00;100257.69;4903172;29;20032;-71
2023/11/30 00:21:28;;;;;;;7.80;4.43;;;;;;;-2.55;100.00;100267.16;4887574;29;20072;-72
2023/11/30 00:23:53;;;;;;;8.00;5.35;;;;;;;-2.54;100.00;100268.75;4852474;29;20082;-72
2023/11/30 00:26:19;;;;;;;7.32;4.60;;;;;;;-2.53;100.00;100272.19;4854103;29;20045;-72
2023/11/30 00:28:52;;;;;;;6.20;4.10;;;;;;;-2.52;100.00;100261.50;4886830;29;20100;-72
2023/11/30 00:31:18;;;;;;;6.38;4.00;;;;;;;-2.50;100.00;100266.56;4865530;29;20055;-72
2023/11/30 00:33:44;;;;;;;8.02;4.65;;;;;;;-2.49;100.00;100266.38;4867753;29;20044;-72
2023/11/30 00:36:10;;;;;;;6.85;3.90;;;;;;;-2.48;100.00;100264.56;4854954;29;20046;-73
2023/11/30 00:38:36;;;;;;;5.97;3.13;;;;;;;-2.48;100.00;100273.22;4842432;29;20040;-72
2023/11/30 00:41:03;;;;;;;7.13;4.03;;;;;;;-2.45;100.00;100274.66;4870593;29;20439;-72
2023/11/30 00:43:29;;;;;;;5.80;3.42;;;;;;;-2.47;100.00;100271.41;4870236;29;20517;-71
2023/11/30 00:45:55;;;;;;;6.60;3.88;;;;;;;-2.44;100.00;100270.22;4903521;29;20044;-76
2023/11/30 00:48:20;;;;;;;6.32;3.97;;;;;;;-2.47;100.00;100269.59;4872420;29;20029;-73
2023/11/30 00:50:46;;;;;;;6.88;4.30;;;;;;;-2.44;100.00;100272.81;4886501;29;20046;-73
2023/11/30 00:53:12;;;;;;;5.57;3.85;;;;;;;-2.43;100.00;100277.91;4877526;29;20407;-72
2023/11/30 00:55:37;;;;;;;8.23;4.80;;;;;;;-2.47;100.00;100272.22;4887462;29;20060;-73
2023/11/30 00:58:03;;;;;;;6.28;3.85;;;;;;;-2.46;100.00;100278.28;4867499;29;20044;-73
2023/11/30 01:00:29;;;;;;;8.02;5.05;;;;;;;-2.45;100.00;100273.84;4857355;29;20132;-72
2023/11/30 01:02:55;;;;;;;9.52;5.53;;;;;;;-2.45;100.00;100284.31;4853048;29;20068;-72
2023/11/30 01:05:21;;;;;;;7.57;4.40;;;;;;;-2.47;100.00;100280.09;4852688;29;21195;-74
2023/11/30 01:07:47;;;;;;;9.25;5.82;;;;;;;-2.49;100.00;100279.50;4867110;29;20141;-73
2023/11/30 01:10:13;;;;;;;10.45;5.22;;;;;;;-2.47;100.00;100287.97;4870421;29;20559;-72
2023/11/30 01:12:39;;;;;;;10.50;5.78;;;;;;;-2.48;100.00;100286.34;4900016;29;20091;-72
2023/11/30 01:15:05;;;;;;;8.38;5.32;;;;;;;-2.47;100.00;100295.81;4886947;29;20123;-73
2023/11/30 01:20:21;;;;;;;9.82;5.22;;;;;;;-2.54;100.00;100281.88;5060404;23;20056;-83
2023/11/30 01:22:48;;;;;;;8.98;5.20;;;;;;;-2.51;100.00;100289.38;4918552;28;20040;-82
2023/11/30 01:25:17;;;;;;;9.73;5.38;;;;;;;-2.55;100.00;100290.75;4924151;29;20036;-83
2023/11/30 01:27:43;;;;;;;9.02;5.13;;;;;;;-2.55;100.00;100290.75;5247986;23;20071;-82
2023/11/30 01:30:10;;;;;;;9.13;5.05;;;;;;;-2.53;100.00;100293.97;4927939;29;20099;-79
2023/11/30 01:32:36;;;;;;;9.27;5.15;;;;;;;-2.56;100.00;100283.09;4909233;29;20597;-80
2023/11/30 01:35:03;;;;;;;8.80;4.68;;;;;;;-2.57;100.00;100287.53;4948446;28;20081;-81
2023/11/30 01:37:29;;;;;;;9.55;5.43;;;;;;;-2.59;100.00;100283.47;4946815;29;20031;-80
2023/11/30 01:39:55;;;;;;;10.13;6.47;;;;;;;-2.56;100.00;100294.38;4935506;28;20039;-78
2023/11/30 01:42:21;;;;;;;9.73;5.22;;;;;;;-2.57;100.00;100292.75;4912562;29;20947;-79
2023/11/30 01:44:47;;;;;;;10.45;5.97;;;;;;;-2.58;100.00;100291.13;4935152;28;20063;-78
2023/11/30 01:47:15;;;;;;;9.23;6.03;;;;;;;-2.57;100.00;100292.75;4922369;29;20031;-80
2023/11/30 01:49:42;;;;;;;12.50;6.43;;;;;;;-2.59;100.00;100284.25;4935463;28;20787;-80
2023/11/30 01:52:09;;;;;;;9.00;6.15;;;;;;;-2.62;100.00;100274.19;4956848;28;20057;-78
2023/11/30 01:54:36;;;;;;;10.75;5.97;;;;;;;-2.66;100.00;100282.63;4934153;29;20032;-79
2023/11/30 01:57:02;;;;;;;10.07;6.20;;;;;;;-2.67;100.00;100281.81;4919210;28;20133;-79
2023/11/30 01:59:28;;;;;;;10.15;5.53;;;;;;;-2.70;100.00;100268.31;4905253;29;20035;-79
2023/11/30 02:01:54;;;;;;;11.15;6.53;;;;;;;-2.75;100.00;100274.13;4952592;28;20098;-80
2023/11/30 02:04:21;;;;;;;12.05;6.72;;;;;;;-2.76;100.00;100277.75;4939152;28;20051;-81
2023/11/30 02:06:48;;;;;;;10.27;6.55;;;;;;;-2.81;100.00;100274.88;4951471;28;20515;-81
2023/11/30 02:09:13;;;;;;;11.95;7.70;;;;;;;-2.86;100.00;100272.03;4934245;29;20035;-80
2023/11/30 02:11:40;;;;;;;10.68;6.63;;;;;;;-2.87;100.00;100270.41;4925326;29;20094;-79
2023/11/30 02:14:06;;;;;;;12.95;6.82;;;;;;;-2.93;100.00;100268.56;4912988;29;20042;-79
2023/11/30 02:16:31;;;;;;;12.00;7.05;;;;;;;-2.95;100.00;100267.97;4905193;28;20034;-78
2023/11/30 02:18:57;;;;;;;10.15;6.32;;;;;;;-2.99;100.00;100267.50;4910360;28;20633;-79
2023/11/30 02:21:23;;;;;;;10.95;6.80;;;;;;;-2.99;100.00;100266.72;4934524;29;20165;-80
2023/11/30 02:23:50;;;;;;;12.23;6.57;;;;;;;-3.05;100.00;100266.50;4933079;29;20127;-80
2023/11/30 02:26:17;;;;;;;11.80;6.32;;;;;;;-3.06;100.00;100267.47;4900529;28;20070;-78
2023/11/30 02:28:43;;;;;;;11.80;6.25;;;;;;;-3.09;100.00;100257.41;4918620;28;20070;-79
2023/11/30 02:31:12;;;;;;;10.43;5.57;;;;;;;-3.16;100.00;100259.16;4931743;28;20501;-79
2023/11/30 02:33:37;;;;;;;11.57;6.63;;;;;;;-3.15;100.00;100267.84;4928794;29;20122;-81
2023/11/30 02:36:03;;;;;;;9.65;6.20;;;;;;;-3.14;100.00;100264.19;4899406;28;20138;-80
2023/11/30 02:38:29;;;;;;;11.40;5.72;;;;;;;-3.15;100.00;100258.16;4928119;28;20030;-80
2023/11/30 02:40:55;;;;;;;11.50;6.75;;;;;;;-3.11;100.00;100261.22;4936290;28;20664;-80
2023/11/30 02:43:20;;;;;;;10.80;6.22;;;;;;;-3.12;100.00;100257.75;4916147;29;20442;-79
2023/11/30 02:45:46;;;;;;;9.95;5.70;;;;;;;-3.11;100.00;100258.59;4928879;28;20576;-79
2023/11/30 02:48:13;;;;;;;10.68;6.22;;;;;;;-3.12;100.00;100251.72;4949708;28;20036;-80
2023/11/30 02:50:39;;;;;;;11.02;5.93;;;;;;;-3.15;100.00;100255.53;4916802;28;20038;-77
2023/11/30 02:53:05;;;;;;;10.82;6.15;;;;;;;-3.15;100.00;100252.13;4934442;28;20377;-81
2023/11/30 02:55:30;;;;;;;12.20;6.47;;;;;;;-3.17;100.00;100254.94;4928865;29;20038;-80
2023/11/30 02:57:56;;;;;;;10.63;6.47;;;;;;;-3.16;100.00;100261.78;4905968;28;20034;-81
2023/11/30 03:00:21;;;;;;;11.35;6.05;;;;;;;-3.17;100.00;100257.56;4930474;28;20045;-77
2023/11/30 03:02:47;;;;;;;13.10;6.93;;;;;;;-3.18;100.00;100269.03;4916981;28;20118;-78
2023/11/30 03:05:13;;;;;;;12.23;6.55;;;;;;;-3.21;100.00;100264.16;4928683;28;20035;-78
2023/11/30 03:07:39;;;;;;;11.77;6.10;;;;;;;-3.22;100.00;100273.03;4929369;28;20031;-77
2023/11/30 03:10:05;;;;;;;9.73;6.20;;;;;;;-3.21;100.00;100265.97;4895971;28;20042;-78
2023/11/30 03:12:30;;;;;;;12.00;6.53;;;;;;;-3.20;100.00;100265.78;4929660;29;20059;-78
2023/11/30 03:14:56;;;;;;;11.90;6.95;;;;;;;-3.18;100.00;100266.41;4911068;28;20218;-78
2023/11/30 03:17:21;;;;;;;11.52;6.10;;;;;;;-3.15;100.00;100273.88;4924643;28;20110;-79
2023/11/30 03:19:48;;;;;;;10.70;6.47;;;;;;;-3.14;100.00;100265.00;4932342;28;20039;-77
2023/11/30 03:22:14;;;;;;;11.35;6.00;;;;;;;-3.12;100.00;100254.34;4913171;29;20031;-78
2023/11/30 03:24:40;;;;;;;9.25;5.38;;;;;;;-3.10;100.00;100255.78;4933329;29;20409;-78
2023/11/30 03:27:11;;;;;;;12.45;6.65;;;;;;;-3.12;100.00;100257.75;4946252;28;20035;-79
2023/11/30 03:29:37;;;;;;;11.77;6.90;;;;;;;-3.11;100.00;100264.66;4944372;28;20563;-80
2023/11/30 03:32:03;;;;;;;12.13;6.68;;;;;;;-3.09;100.00;100267.88;4921135;28;20038;-79
2023/11/30 03:34:29;;;;;;;11.10;6.07;;;;;;;-3.07;100.00;100260.63;4931592;29;20043;-82
2023/11/30 03:36:54;;;;;;;12.00;6.47;;;;;;;-3.06;100.00;100256.19;4938022;28;20042;-82
2023/11/30 03:39:19;;;;;;;12.82;6.82;;;;;;;-3.04;100.00;100264.69;4944189;28;20085;-79
2023/11/30 03:41:45;;;;;;;14.32;7.90;;;;;;;-3.05;100.00;100260.44;4933316;28;20043;-78
2023/11/30 03:44:11;;;;;;;14.68;7.57;;;;;;;-3.03;100.00;100263.69;4927424;29;20031;-79
2023/11/30 03:46:37;;;;;;;13.05;7.28;;;;;;;-3.04;100.00;100264.69;4911889;28;20043;-80
2023/11/30 03:49:03;;;;;;;15.13;8.13;;;;;;;-3.01;100.00;100264.28;4903226;28;20055;-80
2023/11/30 03:51:28;;;;;;;13.15;7.00;;;;;;;-3.04;100.00;100260.25;4939948;28;20050;-80
2023/11/30 03:53:54;;;;;;;13.52;7.55;;;;;;;-2.99;100.00;100259.66;4905484;28;20054;-80
2023/11/30 03:56:19;;;;;;;12.02;7.18;;;;;;;-2.98;100.00;100255.22;4911905;29;20513;-79
2023/11/30 03:58:45;;;;;;;12.13;6.20;;;;;;;-2.98;100.00;100247.38;4934289;28;20445;-80
2023/11/30 04:01:11;;;;;;;12.98;7.45;;;;;;;-2.95;100.00;100258.28;4915299;28;20039;-79
2023/11/30 04:03:36;;;;;;;12.05;6.72;;;;;;;-2.96;100.00;100259.28;4955601;28;20039;-80
2023/11/30 04:06:03;;;;;;;13.38;7.05;;;;;;;-2.95;100.00;100257.47;4915560;29;20043;-79
2023/11/30 04:08:28;;;;;;;14.52;6.90;;;;;;;-2.95;100.00;100254.84;4930464;29;20059;-80
2023/11/30 04:10:54;;;;;;;12.40;7.28;;;;;;;-2.98;100.00;100261.31;4917205;28;20729;-80
2023/11/30 04:13:20;;;;;;;15.63;7.78;;;;;;;-2.95;100.00;100252.25;4946783;28;20104;-81
2023/11/30 04:15:45;;;;;;;12.35;7.18;;;;;;;-2.95;100.00;100254.84;4935250;28;20078;-79
2023/11/30 04:18:13;;;;;;;12.95;7.20;;;;;;;-2.97;100.00;100254.25;4938830;29;20050;-80
2023/11/30 04:20:38;;;;;;;15.55;7.18;;;;;;;-2.96;100.00;100256.66;4913576;29;20054;-79
2023/11/30 04:23:03;;;;;;;14.13;8.07;;;;;;;-2.96;100.00;100253.25;4926162;29;20552;-81
2023/11/30 04:25:29;;;;;;;14.02;7.15;;;;;;;-2.97;100.00;100259.50;4946634;28;20030;-81
2023/11/30 04:27:56;;;;;;;14.15;7.32;;;;;;;-2.97;100.00;100249.00;4922518;28;20793;-82
2023/11/30 04:30:21;;;;;;;15.18;8.30;;;;;;;-2.94;100.00;100254.66;4946965;28;20046;-80
2023/11/30 04:32:47;;;;;;;15.38;7.28;;;;;;;-2.92;100.00;100251.84;4938225;29;20114;-80
2023/11/30 04:35:13;;;;;;;17.20;7.47;;;;;;;-2.91;100.00;100253.44;4942576;29;20556;-79
2023/11/30 04:37:39;;;;;;;15.32;7.32;;;;;;;-2.92;100.00;100246.59;4927664;29;20041;-81
2023/11/30 04:40:06;;;;;;;17.55;8.35;;;;;;;-2.92;100.00;100247.41;4908946;29;20508;-81
2023/11/30 04:42:32;;;;;;;13.73;7.57;;;;;;;-2.90;100.00;100255.09;4913005;29;20036;-81
2023/11/30 04:44:58;;;;;;;14.15;6.97;;;;;;;-2.92;100.00;100246.59;4896789;29;20424;-81
2023/11/30 04:47:24;;;;;;;12.65;7.13;;;;;;;-2.96;100.00;100235.72;4918832;29;20489;-81
2023/11/30 04:49:51;;;;;;;13.10;7.45;;;;;;;-2.96;100.00;100237.53;4920257;29;20118;-81
2023/11/30 04:52:16;;;;;;;13.82;7.75;;;;;;;-2.97;100.00;100239.34;4920603;28;20045;-81
2023/11/30 04:54:42;;;;;;;14.25;7.68;;;;;;;-3.02;100.00;100241.72;4936037;28;20078;-82
2023/11/30 04:57:10;;;;;;;13.85;7.43;;;;;;;-3.04;100.00;100238.50;4929731;29;20432;-82
2023/11/30 04:59:35;;;;;;;11.02;6.57;;;;;;;-3.12;100.00;100239.44;4932627;29;20038;-82
2023/11/30 05:02:01;;;;;;;13.73;7.10;;;;;;;-3.20;100.00;100241.41;4952957;28;20450;-82
2023/11/30 05:04:26;;;;;;;14.15;7.65;;;;;;;-3.19;100.00;100233.34;4954555;28;20573;-80
2023/11/30 05:06:51;;;;;;;13.77;7.35;;;;;;;-3.23;100.00;100239.97;4933597;29;20047;-80
2023/11/30 05:09:17;;;;;;;11.63;6.40;;;;;;;-3.25;100.00;100242.00;4914889;29;20039;-79
2023/11/30 05:11:43;;;;;;;13.68;7.47;;;;;;;-3.26;100.00;100242.97;4932356;29;20103;-79
2023/11/30 05:14:08;;;;;;;11.43;6.47;;;;;;;-3.33;100.00;100242.13;4917690;29;20401;-80
2023/11/30 05:16:34;;;;;;;13.77;6.80;;;;;;;-3.33;100.00;100249.97;4931855;29;20039;-80
2023/11/30 05:19:00;;;;;;;13.35;7.50;;;;;;;-3.39;100.00;100240.25;4933214;29;20137;-79
2023/11/30 05:21:26;;;;;;;12.90;6.90;;;;;;;-3.48;100.00;100244.03;4931743;28;20039;-79
2023/11/30 05:23:52;;;;;;;12.40;6.90;;;;;;;-3.51;100.00;100252.28;4932051;28;20489;-80
2023/11/30 05:26:17;;;;;;;12.95;7.65;;;;;;;-3.57;100.00;100259.88;4932617;28;20047;-79
2023/11/30 05:28:43;;;;;;;11.35;6.43;;;;;;;-3.62;100.00;100251.78;4938138;29;20039;-80
2023/11/30 05:31:09;;;;;;;14.60;7.95;;;;;;;-3.63;100.00;100244.13;4919041;28;20075;-78
2023/11/30 05:33:35;;;;;;;13.45;7.15;;;;;;;-3.69;100.00;100250.91;4913946;29;20051;-78
2023/11/30 05:36:01;;;;;;;13.90;7.00;;;;;;;-3.73;100.00;100252.28;4917172;28;20531;-79
2023/11/30 05:38:27;;;;;;;19.05;8.07;;;;;;;-3.81;100.00;100251.59;4920483;29;20082;-80
2023/11/30 05:40:53;;;;;;;15.63;8.43;;;;;;;-3.87;100.00;100246.09;4930362;28;20497;-78
2023/11/30 05:43:20;;;;;;;15.80;8.82;;;;;;;-3.90;100.00;100261.38;4946871;28;20043;-79
2023/11/30 05:45:45;;;;;;;13.18;7.25;;;;;;;-3.96;100.00;100255.09;4928960;28;20042;-78
2023/11/30 05:48:11;;;;;;;13.02;7.13;;;;;;;-3.98;100.00;100258.91;4929310;29;20040;-79
2023/11/30 05:50:37;;;;;;;13.77;7.35;;;;;;;-4.01;100.00;100261.88;4918035;28;20119;-78
2023/11/30 05:53:04;;;;;;;11.85;6.82;;;;;;;-4.04;100.00;100259.63;4946696;28;20117;-79
2023/11/30 05:55:30;;;;;;;13.55;6.82;;;;;;;-4.11;100.00;100264.81;4920589;28;20035;-78
2023/11/30 05:57:56;;;;;;;12.80;6.78;;;;;;;-4.15;100.00;100261.72;4932394;29;20027;-79
2023/11/30 06:00:22;;;;;;;13.68;7.57;;;;;;;-4.16;100.00;100262.72;4949562;28;20039;-79
2023/11/30 06:02:48;;;;;;;15.18;7.50;;;;;;;-4.18;100.00;100269.97;4950198;28;20034;-78
2023/11/30 06:05:13;;;;;;;13.57;7.40;;;;;;;-4.18;100.00;100261.31;4916718;28;20493;-78
2023/11/30 06:07:39;;;;;;;12.30;6.85;;;;;;;-4.24;100.00;100264.66;4923949;29;20083;-79
2023/11/30 06:10:06;;;;;;;15.35;7.82;;;;;;;-4.26;100.00;100259.63;4932849;28;20035;-79
2023/11/30 06:12:31;;;;;;;13.73;7.78;;;;;;;-4.29;100.00;100267.81;4920748;28;20034;-79
2023/11/30 06:14:57;;;;;;;14.30;7.43;;;;;;;-4.32;100.00;100273.44;4916199;29;20054;-78
2023/11/30 06:17:23;;;;;;;14.60;7.50;;;;;;;-4.30;100.00;100270.63;4944426;28;20043;-78
2023/11/30 06:19:49;;;;;;;14.18;7.18;;;;;;;-4.33;100.00;100271.00;4927799;29;20117;-79
2023/11/30 06:22:15;;;;;;;15.07;7.80;;;;;;;-4.38;100.00;100270.75;4938895;28;20028;-78
2023/11/30 06:24:40;;;;;;;17.13;8.27;;;;;;;-4.40;100.00;100276.16;4938551;28;20043;-79
2023/11/30 06:27:07;;;;;;;13.55;7.28;;;;;;;-4.37;100.00;100277.56;4938120;28;20110;-79
2023/11/30 06:29:33;;;;;;;13.50;7.97;;;;;;;-4.43;100.00;100279.13;4905338;29;20038;-79
2023/11/30 06:32:01;;;;;;;17.30;9.05;;;;;;;-4.47;100.00;100283.06;4955113;28;20556;-78
2023/11/30 06:34:33;;;;;;;14.25;8.40;;;;;;;-4.48;100.00;100291.91;4952549;28;20071;-78
2023/11/30 06:36:58;;;;;;;15.38;8.30;;;;;;;-4.53;100.00;100289.06;4934348;28;20054;-78
2023/11/30 06:39:25;;;;;;;14.70;7.60;;;;;;;-4.57;100.00;100293.03;4926923;29;20043;-78
2023/11/30 06:41:51;;;;;;;15.07;8.52;;;;;;;-4.56;100.00;100302.47;4916100;29;20485;-78
2023/11/30 06:44:17;;;;;;;14.07;7.85;;;;;;;-4.60;100.00;100298.63;4912453;28;20085;-79
2023/11/30 06:46:43;;;;;;;14.75;8.55;;;;;;;-4.61;100.00;100303.00;4930425;29;20040;-78
2023/11/30 06:49:09;;;;;;;18.23;8.48;;;;;;;-4.61;100.00;100294.38;4926471;29;20535;-77
2023/11/30 06:51:36;;;;;;;18.08;8.68;;;;;;;-4.65;100.00;100301.78;4940058;28;20040;-78
2023/11/30 06:54:02;;;;;;;14.57;8.13;;;;;;;-4.65;100.00;100295.72;4925381;28;20039;-79
2023/11/30 06:56:29;;;;;;;16.55;8.05;;;;;;;-4.64;100.00;100302.56;4942747;28;20027;-79
2023/11/30 06:58:54;;;;;;;16.65;8.65;;;;;;;-4.70;100.00;100294.47;4929258;29;20041;-78
2023/11/30 07:01:25;;;;;;;16.08;8.38;;;;;;;-4.72;100.00;100306.91;4928287;28;20114;-77
2023/11/30 07:03:52;;;;;;;17.02;8.32;;;;;;;-4.72;100.00;100300.88;4941619;29;20038;-78
2023/11/30 07:06:19;;;;;;;16.40;8.98;;;;;;;-4.70;100.00;100299.69;4942929;28;20035;-79
2023/11/30 07:08:45;;;;;;;14.30;7.95;;;;;;;-4.68;100.00;100307.34;4940687;29;20035;-79
2023/11/30 07:11:11;;;;;;;16.17;8.02;;;;;;;-4.68;100.00;100313.38;4927912;28;20046;-79
2023/11/30 07:13:37;;;;;;;15.10;7.15;;;;;;;-4.67;100.00;100314.22;4947429;29;20367;-78
2023/11/30 07:16:03;;;;;;;17.25;7.88;;;;;;;-4.67;100.00;100314.22;4940356;28;20583;-79
2023/11/30 07:18:29;;;;;;;15.75;8.00;;;;;;;-4.70;100.00;100315.38;4940224;23;20107;-70
2023/11/30 07:20:55;;;;;;;15.57;7.47;;;;;;;-4.70;100.00;100312.75;4918931;29;20061;-70
2023/11/30 07:23:21;;;;;;;14.95;7.88;;;;;;;-4.70;100.00;100323.19;4931863;28;20658;-70
2023/11/30 07:25:46;;;;;;;15.52;7.63;;;;;;;-4.74;100.00;100324.56;4916578;28;20047;-69
2023/11/30 07:28:12;;;;;;;17.58;8.65;;;;;;;-4.78;100.00;100312.84;4940369;28;20070;-70
2023/11/30 07:30:40;;;;;;;14.38;8.00;;;;;;;-4.80;100.00;100325.28;4924940;29;20133;-70
2023/11/30 07:33:09;;;;;;;13.77;7.35;;;;;;;-4.81;100.00;100326.28;4946241;28;20127;-70
2023/11/30 07:35:37;;;;;;;16.88;8.15;;;;;;;-4.83;100.00;100323.03;4931120;28;20515;-70
2023/11/30 07:38:03;;;;;;;16.52;7.90;;;;;;;-4.82;100.00;100321.22;4944597;28;20061;-69
2023/11/30 07:40:29;;;;;;;16.85;8.43;;;;;;;-4.82;100.00;100326.44;4940180;28;20038;-70
2023/11/30 07:42:56;;;;;;;16.55;8.38;;;;;;;-4.81;100.00;100325.44;4918481;28;20043;-70
2023/11/30 07:45:22;;;;;;;17.63;9.13;;;;;;;-4.81;100.00;100321.06;4909892;28;20234;-71
2023/11/30 07:47:47;;;;;;;19.15;9.13;;;;;;;-4.83;100.00;100315.19;4927332;29;20039;-70
2023/11/30 07:50:16;;;;;;;18.15;9.70;;;;;;;-4.81;100.00;100312.38;4925653;29;20479;-70
2023/11/30 07:52:42;;;;;;;18.95;9.32;;;;;;;-4.78;100.00;100325.91;4944444;28;20097;-72
2023/11/30 07:55:08;;;;;;;24.35;9.75;;;;;;;-4.77;100.00;100317.06;4944144;28;20031;-70
2023/11/30 07:57:34;;;;;;;23.27;10.52;;;;;;;-4.76;100.00;100331.75;4927414;28;20113;-71
2023/11/30 08:00:02;;;;;;;19.48;9.75;;;;;;;-4.74;100.00;100331.56;4942462;28;20042;-71
2023/11/30 08:02:30;;;;;;;20.10;10.02;;;;;;;-4.70;100.00;100330.22;4942300;28;20039;-71
2023/11/30 08:04:55;;;;;;;19.27;8.18;;;;;;;-4.68;100.00;100334.28;4940296;28;20417;-71
2023/11/30 08:07:21;;;;;;;19.25;8.52;;;;;;;-4.62;100.00;100337.16;4910013;28;20609;-70
2023/11/30 08:09:46;;;;;;;17.15;6.97;;;;;;;-4.60;100.00;100335.22;4927406;29;20137;-71
2023/11/30 08:12:12;;;;;;;19.90;9.15;;;;;;;-4.57;100.00;100338.25;4942063;28;20047;-70
2023/11/30 08:14:38;;;;;;;20.00;9.18;;;;;;;-4.53;100.00;100331.69;4911199;29;20035;-70
2023/11/30 08:17:04;;;;;;;19.92;10.10;;;;;;;-4.52;100.00;100327.28;4923405;28;20039;-70
2023/11/30 08:19:30;;;;;;;;;;;;;;;-4.46;100.00;100339.63;4922686;28;20054;-70
2023/11/30 08:21:55;;;;;;;19.25;9.10;;;;;;;-4.44;100.00;100335.81;4923219;29;19918;-70
2023/11/30 08:24:21;;;;;;;21.42;9.23;;;;;;;-4.38;100.00;100336.09;4942917;28;20039;-71
2023/11/30 08:26:47;;;;;;;21.88;10.32;;;;;;;-4.35;100.00;100336.53;4927279;28;20047;-71
2023/11/30 08:29:15;;;;;;;20.85;9.35;;;;;;;-4.29;100.00;100343.63;4940785;28;20086;-71
2023/11/30 08:31:41;;;;;;;25.85;10.35;;;;;;;-4.25;100.00;100344.09;4924549;29;20513;-71
2023/11/30 08:34:07;;;;;;;25.25;10.80;;;;;;;-4.19;100.00;100354.63;4908204;28;20039;-70
2023/11/30 08:36:32;;;;;;;20.17;9.85;;;;;;;-4.09;100.00;100353.53;4913160;28;20034;-71
2023/11/30 08:38:58;;;;;;;17.92;9.63;;;;;;;-4.03;100.00;100353.59;4922323;29;20130;-70
2023/11/30 08:41:24;;;;;;;18.98;9.55;;;;;;;-3.96;100.00;100354.50;4889336;28;20036;-70
2023/11/30 08:43:50;;;;;;;20.85;9.93;;;;;;;-3.90;100.00;100352.94;4936627;28;20054;-69
2023/11/30 08:46:15;;;;;;;22.77;9.57;;;;;;;-3.86;100.00;100355.03;4937718;28;20038;-70
2023/11/30 08:48:41;;;;;;;22.05;9.70;;;;;;;-3.81;100.00;100357.06;4925904;29;20043;-69
2023/11/30 08:51:08;;;;;;;19.15;8.80;;;;;;;-3.75;100.00;100356.31;4909228;29;20037;-70
2023/11/30 08:53:33;;;;;;;19.30;9.18;;;;;;;-3.72;100.00;100361.22;4927841;28;20066;-70
2023/11/30 08:55:59;;;;;;;21.08;9.65;;;;;;;-3.71;100.00;100362.81;4921084;29;20101;-69
2023/11/30 08:58:25;;;;;;;23.10;10.80;;;;;;;-3.65;100.00;100369.94;4922926;28;20050;-72
2023/11/30 09:00:51;;;;;;;20.17;9.68;;;;;;;-3.61;100.00;100362.50;4942174;28;20654;-71
2023/11/30 09:03:18;;;;;;;20.40;9.48;;;;;;;-3.57;100.00;100367.19;4940638;28;20063;-71
2023/11/30 09:05:44;;;;;;;21.90;9.70;;;;;;;-3.51;100.00;100362.22;4941690;28;20519;-71
2023/11/30 09:08:09;;;;;;;16.83;8.38;;;;;;;-3.43;100.00;100362.91;4923546;28;20071;-69
2023/11/30 09:10:35;;;;;;;22.15;10.77;;;;;;;-3.37;100.00;100363.97;4925685;28;20959;-71
2023/11/30 09:13:03;;;;;;;18.98;9.82;;;;;;;-3.35;100.00;100361.94;4941272;28;20567;-71
2023/11/30 09:15:33;;;;;;;21.23;9.30;;;;;;;-3.29;100.00;100374.28;4903804;28;20058;-70
2023/11/30 09:18:01;;;;;;;21.85;10.68;;;;;;;-3.30;100.00;100362.22;4924177;28;20046;-70
2023/11/30 09:20:27;;;;;;;18.83;9.82;;;;;;;-3.23;100.00;100362.25;4904996;28;20082;-70
2023/11/30 09:22:53;;;;;;;22.65;9.80;;;;;;;-3.18;100.00;100363.31;4905713;29;20042;-70
2023/11/30 09:25:19;;;;;;;20.50;10.35;;;;;;;-3.14;100.00;100361.94;4920511;28;20519;-70
2023/11/30 09:27:44;;;;;;;22.08;10.75;;;;;;;-3.09;100.00;100358.75;4924433;28;20044;-70
2023/11/30 09:30:10;;;;;;;21.38;10.45;;;;;;;-3.05;100.00;100357.34;4925255;29;20039;-70
2023/11/30 09:32:37;;;;;;;22.33;10.20;;;;;;;-3.05;100.00;100352.94;4938510;28;20039;-70
2023/11/30 09:35:06;;;;;;;20.83;9.07;;;;;;;-3.03;100.00;100356.19;4929260;28;20461;-72
2023/11/30 09:37:32;;;;;;;19.48;9.15;;;;;;;-2.98;100.00;100346.94;4911119;28;20481;-71
2023/11/30 09:39:59;;;;;;;21.23;9.60;;;;;;;-2.91;100.00;100363.50;4928521;29;20034;-70
2023/11/30 09:42:26;;;;;;;18.98;10.05;;;;;;;-2.86;100.00;100363.75;4912282;28;20043;-69
2023/11/30 09:44:58;;;;;;;20.42;9.27;;;;;;;-2.80;100.00;100355.13;4911312;28;20159;-69
2023/11/30 09:47:24;;;;;;;20.42;9.70;;;;;;;-2.74;100.00;100349.13;4924770;28;20999;-71
2023/11/30 09:49:49;;;;;;;19.10;9.45;;;;;;;-2.70;100.00;100341.69;4937116;28;20481;-72
2023/11/30 09:52:15;;;;;;;22.05;10.00;;;;;;;-2.70;100.00;100353.00;4923742;29;20039;-71
2023/11/30 09:54:42;;;;;;;23.50;10.98;;;;;;;-2.63;100.00;100355.66;4923164;28;20126;-72
2023/11/30 09:57:07;;;;;;;22.83;10.90;;;;;;;-2.60;100.00;100356.06;4910627;28;20035;-69
2023/11/30 09:59:33;;;;;;;22.23;11.15;;;;;;;-2.54;100.00;100350.03;4929443;28;20038;-70
2023/11/30 10:01:59;;;;;;;20.00;10.13;;;;;;;-2.49;100.00;100347.66;4909488;29;20152;-70
2023/11/30 10:04:25;;;;;;;16.88;8.52;;;;;;;-2.43;100.00;100346.09;4920894;28;20038;-70
2023/11/30 10:06:55;;;;;;;21.35;10.15;;;;;;;-2.36;100.00;100338.25;4937226;28;20035;-71
2023/11/30 10:09:21;;;;;;;16.88;9.18;;;;;;;-2.31;100.00;100333.19;4896565;28;20035;-71
2023/11/30 10:11:49;;;;;;;18.58;9.90;;;;;;;-2.28;100.00;100338.06;4920387;29;20866;-71
2023/11/30 10:14:17;;;;;;;15.18;8.40;;;;;;;-2.27;100.00;100334.44;4928051;28;20042;-72
2023/11/30 10:16:43;;;;;;;18.45;9.18;;;;;;;-2.23;100.00;100333.06;4920538;28;20041;-70
2023/11/30 10:19:10;;;;;;;17.00;8.93;;;;;;;-2.19;100.00;100323.78;4909662;29;20054;-71
2023/11/30 10:21:37;;;;;;;17.55;9.02;;;;;;;-2.17;100.00;100319.13;4924805;28;20036;-71
2023/11/30 10:24:03;;;;;;;15.63;8.88;;;;;;;-2.14;100.00;100317.94;4941866;28;20043;-71
2023/11/30 10:26:33;;;;;;;18.08;9.90;;;;;;;-2.12;100.00;100306.25;4917951;28;20050;-70
2023/11/30 10:29:04;;;;;;;17.77;10.07;;;;;;;-2.07;100.00;100306.47;4919367;29;20031;-71
2023/11/30 10:31:36;;;;;;;17.67;9.90;;;;;;;-2.02;100.00;100311.94;4927957;28;20090;-70
2023/11/30 10:34:07;;;;;;;15.52;8.52;;;;;;;-1.99;100.00;100311.53;4946746;28;20058;-71
2023/11/30 10:36:34;;;;;;;19.98;10.02;;;;;;;-1.94;100.00;100305.69;4946522;28;20039;-70
2023/11/30 10:39:11;;;;;;;21.60;10.50;;;;;;;-1.93;100.00;100304.69;4915923;29;20509;-70
2023/11/30 10:41:48;;;;;;;18.80;10.32;;;;;;;-1.90;100.00;100301.66;4922625;28;20043;-70
2023/11/30 10:44:22;;;;;;;15.35;8.50;;;;;;;-1.92;100.00;100307.09;4944731;28;20035;-70
2023/11/30 10:46:51;;;;;;;16.05;9.02;;;;;;;-1.92;100.00;100299.22;4936890;28;20041;-71
2023/11/30 10:49:19;;;;;;;15.25;8.65;;;;;;;-1.85;100.00;100294.00;4910392;29;20035;-70
2023/11/30 10:51:45;;;;;;;14.45;8.05;;;;;;;-1.85;100.00;100291.38;4944521;28;20067;-71
2023/11/30 10:54:22;;;;;;;16.00;8.57;;;;;;;-1.84;100.00;100297.44;4937791;28;20117;-71
2023/11/30 10:56:48;;;;;;;14.80;9.07;;;;;;;-1.85;100.00;100290.56;4909742;29;20032;-70
2023/11/30 10:59:15;;;;;;;15.07;8.02;;;;;;;-1.84;100.00;100294.81;4924278;29;20031;-71
2023/11/30 11:01:46;;;;;;;14.00;7.78;;;;;;;-1.80;100.00;100285.53;4922219;28;20042;-70
2023/11/30 11:04:14;;;;;;;13.70;7.47;;;;;;;-1.79;100.00;100284.53;4924138;28;20806;-70
2023/11/30 11:06:40;;;;;;;13.80;7.63;;;;;;;-1.72;100.00;100285.34;4926826;28;21174;-70
2023/11/30 11:09:07;;;;;;;12.68;7.45;;;;;;;-1.70;100.00;100289.38;4924964;28;20074;-70